Time;durP1;ratioP1;P1;durP2;ratioP2;P2;SDS_P1;SDS_P2;PMS_P1;PMS_P2;Temp;Humidity;BMP_temperature;BMP_pressure;BME280_temperature;BME280_humidity;BME280_pressure;Samples;Min_cycle;Max_cycle;Signal;HPM_P1;HPM_P2
2022/06/04 00:00:01;;;;;;;;;;;;;;;;;;4989473;28;20349;-82
2022/06/04 00:02:26;;;;;;;;;;;;;;;;;;4994579;28;19968;-81
2022/06/04 00:04:51;;;;;;;;;;;;;;;;;;4993357;28;20349;-81
2022/06/04 00:07:17;;;;;;;;;;;;;;;;;;4978578;28;19983;-83
2022/06/04 00:15:29;;;;;;;;;;;;;;;;;;4982470;28;20004;-82
2022/06/04 00:15:29;;;;;;;;;;;;;;;;;;4996721;28;19921;-82
2022/06/04 00:17:54;;;;;;;;;;;;;;;;;;4985363;28;19918;-81
2022/06/04 00:20:20;;;;;;;;;;;;;;;;;;4993568;28;19933;-83
2022/06/04 00:22:46;;;;;;;;;;;;;;;;;;4966603;28;19917;-82
2022/06/04 00:25:13;;;;;;;;;;;;;;;;;;4976622;28;19918;-82
2022/06/04 00:27:38;;;;;;;;;;;;;;;;;;4987625;28;20395;-80
2022/06/04 00:30:05;;;;;;;;;;;;;;;;;;4976283;28;19918;-81
2022/06/04 00:32:30;;;;;;;;;;;;;;;;;;4986537;28;20716;-82
2022/06/04 00:34:55;;;;;;;;;;;;;;;;;;5004916;28;19917;-83
2022/06/04 00:37:20;;;;;;;;;;;;;;;;;;4982549;28;19979;-81
2022/06/04 00:39:46;;;;;;;;;;;;;;;;;;4983379;28;19924;-81
2022/06/04 00:42:13;;;;;;;;;;;;;;;;;;4979943;28;20800;-80
2022/06/04 00:44:38;;;;;;;;;;;;;;;;;;4986825;28;19918;-80
2022/06/04 00:47:06;;;;;;;;;;;;;;;;;;4995571;28;19972;-80
2022/06/04 00:49:32;;;;;;;;;;;;;;;;;;5012668;28;19924;-81
2022/06/04 00:51:57;;;;;;;;;;;;;;;;;;4981471;28;20304;-80
2022/06/04 00:54:22;;;;;;;;;;;;;;;;;;4995589;28;19921;-80
2022/06/04 00:57:05;;;;;;;;;;;;;;;;;;4986754;28;19956;-81
2022/06/04 00:59:33;;;;;;;;;;;;;;;;;;4997166;28;19913;-81
2022/06/04 01:02:11;;;;;;;;;;;;;;;;;;5009646;28;19964;-80
2022/06/04 01:04:55;;;;;;;;;;;;;;;;;;4998392;28;19917;-81
2022/06/04 01:07:36;;;;;;;;;;;;;;;;;;4993827;28;19971;-81
2022/06/04 01:10:06;;;;;;;;;;;;;;;;;;4994200;28;19918;-80
2022/06/04 01:12:32;;;;;;;;;;;;;;;;;;4995589;28;20428;-80
2022/06/04 01:15:00;;;;;;;;;;;;;;;;;;4997271;28;19956;-86
2022/06/04 01:17:38;;;;;;;;;;;;;;;;;;5009226;28;19921;-80
2022/06/04 01:20:09;;;;;;;;;;;;;;;;;;4995401;28;19921;-82
2022/06/04 01:22:41;;;;;;;;;;;;;;;;;;5003446;28;19975;-82
2022/06/04 01:25:21;;;;;;;;;;;;;;;;;;4993026;28;19921;-81
2022/06/04 01:27:49;;;;;;;;;;;;;;;;;;4995110;28;19930;-81
2022/06/04 01:30:17;;;;;;;;;;;;;;;;;;4961488;28;19925;-80
2022/06/04 01:32:53;;;;;;;;;;;;;;;;;;4988033;28;19925;-81
2022/06/04 01:35:23;;;;;;;;;;;;;;;;;;4979738;28;19924;-81
2022/06/04 01:37:50;;;;;;;;;;;;;;;;;;4983011;28;19999;-80
2022/06/04 01:43:00;;;;;;;;;;;;;;;;;;4993256;28;19924;-81
2022/06/04 01:45:25;;;;;;;;;;;;;;;;;;4976148;28;19918;-81
2022/06/04 01:47:51;;;;;;;;;;;;;;;;;;4978903;28;19964;-82
2022/06/04 01:50:17;;;;;;;;;;;;;;;;;;4979309;28;19956;-81
2022/06/04 01:52:42;;;;;;;;;;;;;;;;;;4985747;28;19925;-81
2022/06/04 01:55:10;;;;;;;;;;;;;;;;;;4977080;28;19917;-80
2022/06/04 01:57:38;;;;;;;;;;;;;;;;;;4993284;28;19918;-81
2022/06/04 02:00:08;;;;;;;;;;;;;;;;;;4980003;28;20302;-82
2022/06/04 02:02:36;;;;;;;;;;;;;;;;;;4964236;28;19941;-81
2022/06/04 02:05:02;;;;;;;;;;;;;;;;;;4967127;28;20370;-84
2022/06/04 02:07:32;;;;;;;;;;;;;;;;;;4991028;28;19917;-80
2022/06/04 02:10:06;;;;;;;;;;;;;;;;;;5003162;28;20313;-81
2022/06/04 02:12:33;;;;;;;;;;;;;;;;;;4995192;28;20350;-82
2022/06/04 02:14:59;;;;;;;;;;;;;;;;;;4986428;28;20753;-81
2022/06/04 02:17:24;;;;;;;;;;;;;;;;;;4976446;28;19965;-81
2022/06/04 02:19:49;;;;;;;;;;;;;;;;;;4974211;28;19953;-82
2022/06/04 02:22:15;;;;;;;;;;;;;;;;;;4969597;28;20385;-81
2022/06/04 02:24:40;;;;;;;;;;;;;;;;;;4993408;28;19961;-81
2022/06/04 02:27:06;;;;;;;;;;;;;;;;;;4975141;28;19925;-81
2022/06/04 02:29:32;;;;;;;;;;;;;;;;;;4969491;28;19964;-81
2022/06/04 02:32:03;;;;;;;;;;;;;;;;;;4974795;28;19925;-81
2022/06/04 02:34:32;;;;;;;;;;;;;;;;;;5002764;28;19917;-80
2022/06/04 02:37:06;;;;;;;;;;;;;;;;;;4994184;28;20433;-82
2022/06/04 02:39:43;;;;;;;;;;;;;;;;;;5001835;28;20063;-80
2022/06/04 02:42:23;;;;;;;;;;;;;;;;;;4979709;28;20395;-81
2022/06/04 02:44:52;;;;;;;;;;;;;;;;;;4995984;28;20472;-80
2022/06/04 02:47:23;;;;;;;;;;;;;;;;;;4982070;28;20008;-81
2022/06/04 02:49:48;;;;;;;;;;;;;;;;;;4976803;28;20323;-82
2022/06/04 02:52:14;;;;;;;;;;;;;;;;;;4993902;28;19972;-80
2022/06/04 02:54:40;;;;;;;;;;;;;;;;;;5002113;28;19972;-80
2022/06/04 02:57:05;;;;;;;;;;;;;;;;;;4977241;28;19918;-80
2022/06/04 02:59:33;;;;;;;;;;;;;;;;;;4980375;28;20615;-81
2022/06/04 03:01:59;;;;;;;;;;;;;;;;;;4992249;28;19925;-81
2022/06/04 03:04:24;;;;;;;;;;;;;;;;;;4976798;28;19914;-81
2022/06/04 03:06:49;;;;;;;;;;;;;;;;;;4969010;28;19953;-80
2022/06/04 03:09:15;;;;;;;;;;;;;;;;;;4969596;28;19960;-81
2022/06/04 03:11:42;;;;;;;;;;;;;;;;;;4973084;28;19918;-81
2022/06/04 03:14:08;;;;;;;;;;;;;;;;;;4969010;28;20012;-80
2022/06/04 03:16:38;;;;;;;;;;;;;;;;;;5012417;28;20017;-80
2022/06/04 03:19:04;;;;;;;;;;;;;;;;;;4989986;28;20364;-81
2022/06/04 03:21:29;;;;;;;;;;;;;;;;;;4984477;28;19918;-80
2022/06/04 03:23:54;;;;;;;;;;;;;;;;;;4977890;28;20286;-80
2022/06/04 03:26:20;;;;;;;;;;;;;;;;;;4983579;28;19972;-81
2022/06/04 03:28:45;;;;;;;;;;;;;;;;;;4983979;28;19925;-81
2022/06/04 03:31:10;;;;;;;;;;;;;;;;;;4985933;28;19921;-81
2022/06/04 03:33:35;;;;;;;;;;;;;;;;;;4996922;28;19918;-81
2022/06/04 03:36:01;;;;;;;;;;;;;;;;;;4970933;28;19929;-80
2022/06/04 03:38:26;;;;;;;;;;;;;;;;;;5005218;28;19914;-81
2022/06/04 03:40:51;;;;;;;;;;;;;;;;;;4981677;28;20012;-80
2022/06/04 03:43:16;;;;;;;;;;;;;;;;;;4977161;28;20293;-80
2022/06/04 03:45:41;;;;;;;;;;;;;;;;;;4973665;28;20427;-80
2022/06/04 03:48:07;;;;;;;;;;;;;;;;;;4979001;28;20391;-79
2022/06/04 03:50:32;;;;;;;;;;;;;;;;;;4977849;28;20393;-81
2022/06/04 03:52:57;;;;;;;;;;;;;;;;;;4974255;28;20358;-81
2022/06/04 03:55:24;;;;;;;;;;;;;;;;;;4977890;28;20380;-81
2022/06/04 03:57:50;;;;;;;;;;;;;;;;;;5005060;28;19957;-80
2022/06/04 04:00:19;;;;;;;;;;;;;;;;;;4981465;28;20015;-80
2022/06/04 04:02:48;;;;;;;;;;;;;;;;;;5005223;28;19914;-80
2022/06/04 04:05:14;;;;;;;;;;;;;;;;;;4981110;28;20555;-80
2022/06/04 04:07:40;;;;;;;;;;;;;;;;;;4984686;28;20265;-80
2022/06/04 04:10:06;;;;;;;;;;;;;;;;;;4979912;28;20380;-81
2022/06/04 04:12:32;;;;;;;;;;;;;;;;;;4980960;28;20535;-81
2022/06/04 04:14:57;;;;;;;;;;;;;;;;;;4983136;28;20025;-81
2022/06/04 04:17:23;;;;;;;;;;;;;;;;;;4995898;28;20293;-79
2022/06/04 04:19:48;;;;;;;;;;;;;;;;;;4991628;28;20424;-80
2022/06/04 04:22:13;;;;;;;;;;;;;;;;;;4995803;28;19917;-81
2022/06/04 04:24:38;;;;;;;;;;;;;;;;;;4981522;28;19913;-81
2022/06/04 04:27:04;;;;;;;;;;;;;;;;;;4980139;28;19925;-81
2022/06/04 04:29:29;;;;;;;;;;;;;;;;;;4978849;28;19926;-81
2022/06/04 04:31:54;;;;;;;;;;;;;;;;;;4986904;28;19967;-80
2022/06/04 04:34:19;;;;;;;;;;;;;;;;;;5004612;28;19917;-80
2022/06/04 04:36:45;;;;;;;;;;;;;;;;;;4995293;28;19944;-81
2022/06/04 04:39:10;;;;;;;;;;;;;;;;;;4980273;28;19918;-79
2022/06/04 04:41:36;;;;;;;;;;;;;;;;;;4986303;28;19952;-80
2022/06/04 04:44:01;;;;;;;;;;;;;;;;;;4982105;28;19956;-80
2022/06/04 04:46:27;;;;;;;;;;;;;;;;;;4970733;28;19921;-79
2022/06/04 04:48:52;;;;;;;;;;;;;;;;;;4994717;28;19918;-79
2022/06/04 04:51:19;;;;;;;;;;;;;;;;;;4984500;28;19922;-79
2022/06/04 04:53:45;;;;;;;;;;;;;;;;;;4974694;28;19921;-80
2022/06/04 04:56:11;;;;;;;;;;;;;;;;;;4991575;28;19917;-80
2022/06/04 04:58:37;;;;;;;;;;;;;;;;;;4981889;28;20768;-82
2022/06/04 05:01:02;;;;;;;;;;;;;;;;;;4980071;28;20231;-80
2022/06/04 05:03:27;;;;;;;;;;;;;;;;;;4978133;28;19913;-80
2022/06/04 05:05:56;;;;;;;;;;;;;;;;;;4996094;28;20660;-80
2022/06/04 05:08:21;;;;;;;;;;;;;;;;;;4977064;28;19918;-80
2022/06/04 05:10:46;;;;;;;;;;;;;;;;;;4973044;28;19922;-82
2022/06/04 05:13:12;;;;;;;;;;;;;;;;;;4988445;28;19913;-81
2022/06/04 05:15:37;;;;;;;;;;;;;;;;;;4979945;28;19928;-81
2022/06/04 05:18:02;;;;;;;;;;;;;;;;;;4980789;28;20285;-82
2022/06/04 05:20:28;;;;;;;;;;;;;;;;;;4976983;28;19980;-82
2022/06/04 05:22:54;;;;;;;;;;;;;;;;;;4995818;28;19917;-82
2022/06/04 05:25:19;;;;;;;;;;;;;;;;;;4978719;28;19925;-82
2022/06/04 05:27:44;;;;;;;;;;;;;;;;;;4981580;28;19925;-82
2022/06/04 05:30:09;;;;;;;;;;;;;;;;;;4994355;28;19921;-83
2022/06/04 05:32:35;;;;;;;;;;;;;;;;;;4986473;28;19917;-83
2022/06/04 05:35:00;;;;;;;;;;;;;;;;;;4976901;28;20258;-85
2022/06/04 05:37:25;;;;;;;;;;;;;;;;;;4979893;28;20397;-84
2022/06/04 05:39:51;;;;;;;;;;;;;;;;;;4980883;28;20313;-83
2022/06/04 05:42:16;;;;;;;;;;;;;;;;;;4979531;28;19921;-84
2022/06/04 05:44:41;;;;;;;;;;;;;;;;;;4969448;28;19914;-82
2022/06/04 05:47:06;;;;;;;;;;;;;;;;;;4988427;28;19923;-81
2022/06/04 05:49:32;;;;;;;;;;;;;;;;;;4984531;28;19929;-82
2022/06/04 05:51:57;;;;;;;;;;;;;;;;;;4974471;28;19917;-81
2022/06/04 05:54:22;;;;;;;;;;;;;;;;;;4993679;28;19925;-84
2022/06/04 05:56:48;;;;;;;;;;;;;;;;;;4973337;28;19918;-83
2022/06/04 05:59:14;;;;;;;;;;;;;;;;;;4987222;28;19921;-82
2022/06/04 06:01:39;;;;;;;;;;;;;;;;;;4977735;28;19917;-84
2022/06/04 06:04:05;;;;;;;;;;;;;;;;;;4977191;28;19925;-82
2022/06/04 06:06:31;;;;;;;;;;;;;;;;;;4983174;28;20292;-83
2022/06/04 06:08:57;;;;;;;;;;;;;;;;;;4976727;28;20432;-83
2022/06/04 06:11:23;;;;;;;;;;;;;;;;;;4970190;28;19917;-82
2022/06/04 06:13:48;;;;;;;;;;;;;;;;;;4980306;28;19979;-83
2022/06/04 06:16:14;;;;;;;;;;;;;;;;;;4991090;28;19973;-83
2022/06/04 06:18:40;;;;;;;;;;;;;;;;;;4976081;28;19997;-82
2022/06/04 06:21:09;;;;;;;;;;;;;;;;;;5001704;28;20004;-81
2022/06/04 06:23:35;;;;;;;;;;;;;;;;;;4966072;28;19921;-83
2022/06/04 06:26:04;;;;;;;;;;;;;;;;;;4972284;28;19942;-81
2022/06/04 06:28:29;;;;;;;;;;;;;;;;;;4992759;28;19929;-84
2022/06/04 06:30:54;;;;;;;;;;;;;;;;;;4978745;28;20285;-82
2022/06/04 06:33:20;;;;;;;;;;;;;;;;;;4992967;28;19918;-84
2022/06/04 06:35:53;;;;;;;;;;;;;;;;;;4978701;28;19917;-85
2022/06/04 06:38:18;;;;;;;;;;;;;;;;;;4977691;28;20063;-83
2022/06/04 06:40:44;;;;;;;;;;;;;;;;;;4970466;28;19921;-82
2022/06/04 06:43:09;;;;;;;;;;;;;;;;;;4980962;28;20130;-83
2022/06/04 06:45:34;;;;;;;;;;;;;;;;;;4978297;28;20329;-81
2022/06/04 06:48:00;;;;;;;;;;;;;;;;;;4979968;28;20316;-82
2022/06/04 06:50:25;;;;;;;;;;;;;;;;;;4990269;28;20498;-84
2022/06/04 06:52:50;;;;;;;;;;;;;;;;;;4974835;28;19918;-82
2022/06/04 06:55:15;;;;;;;;;;;;;;;;;;4972460;28;19918;-82
2022/06/04 06:57:41;;;;;;;;;;;;;;;;;;4984552;28;20012;-83
2022/06/04 07:00:06;;;;;;;;;;;;;;;;;;4976835;28;19918;-85
2022/06/04 07:02:32;;;;;;;;;;;;;;;;;;4990420;28;19918;-83
2022/06/04 07:04:57;;;;;;;;;;;;;;;;;;4960003;28;19917;-84
2022/06/04 07:07:22;;;;;;;;;;;;;;;;;;4981451;28;19918;-85
2022/06/04 07:09:47;;;;;;;;;;;;;;;;;;4959495;28;19925;-85
2022/06/04 07:12:12;;;;;;;;;;;;;;;;;;4975133;28;19910;-84
2022/06/04 07:14:38;;;;;;;;;;;;;;;;;;4979864;28;20013;-85
2022/06/04 07:17:05;;;;;;;;;;;;;;;;;;4978115;28;19957;-83
2022/06/04 07:19:30;;;;;;;;;;;;;;;;;;4979148;28;20270;-84
2022/06/04 07:21:56;;;;;;;;;;;;;;;;;;4977507;28;19924;-83
2022/06/04 07:24:21;;;;;;;;;;;;;;;;;;4966851;28;20208;-87
2022/06/04 07:26:47;;;;;;;;;;;;;;;;;;4970611;28;19914;-87
2022/06/04 07:29:12;;;;;;;;;;;;;;;;;;4979271;28;19932;-84
2022/06/04 07:31:41;;;;;;;;;;;;;;;;;;4978201;28;19921;-83
2022/06/04 07:34:06;;;;;;;;;;;;;;;;;;4976179;28;20563;-84
2022/06/04 07:36:34;;;;;;;;;;;;;;;;;;4972635;28;19917;-85
2022/06/04 07:39:01;;;;;;;;;;;;;;;;;;4993009;28;19924;-88
2022/06/04 07:41:32;;;;;;;;;;;;;;;;;;4982953;28;19918;-89
2022/06/04 07:43:57;;;;;;;;;;;;;;;;;;4965827;28;19917;-87
2022/06/04 07:46:23;;;;;;;;;;;;;;;;;;4976432;28;19923;-88
2022/06/04 07:48:48;;;;;;;;;;;;;;;;;;4973997;28;20398;-85
2022/06/04 07:51:14;;;;;;;;;;;;;;;;;;4968820;28;20588;-85
2022/06/04 07:53:39;;;;;;;;;;;;;;;;;;4978129;28;19918;-84
2022/06/04 07:56:08;;;;;;;;;;;;;;;;;;4981561;28;19924;-84
2022/06/04 07:58:34;;;;;;;;;;;;;;;;;;4981640;28;20295;-86
2022/06/04 08:00:59;;;;;;;;;;;;;;;;;;4981523;28;19918;-82
2022/06/04 08:03:24;;;;;;;;;;;;;;;;;;4994560;28;20258;-83
2022/06/04 08:05:53;;;;;;;;;;;;;;;;;;4994583;28;19921;-85
2022/06/04 08:08:18;;;;;;;;;;;;;;;;;;4971700;28;19983;-84
2022/06/04 08:10:47;;;;;;;;;;;;;;;;;;4966600;28;19918;-83
2022/06/04 08:13:19;;;;;;;;;;;;;;;;;;4988244;28;20281;-84
2022/06/04 08:15:44;;;;;;;;;;;;;;;;;;4981138;28;19914;-84
2022/06/04 08:18:10;;;;;;;;;;;;;;;;;;5005114;28;19924;-84
2022/06/04 08:20:39;;;;;;;;;;;;;;;;;;4981391;28;20040;-79
2022/06/04 08:23:04;;;;;;;;;;;;;;;;;;4981894;28;19929;-78
2022/06/04 08:25:30;;;;;;;;;;;;;;;;;;4980805;28;19920;-81
2022/06/04 08:27:55;;;;;;;;;;;;;;;;;;4996001;28;19926;-80
2022/06/04 08:30:20;;;;;;;;;;;;;;;;;;4981823;28;19918;-79
2022/06/04 08:32:45;;;;;;;;;;;;;;;;;;4983865;28;20296;-80
2022/06/04 08:35:10;;;;;;;;;;;;;;;;;;4981482;28;20875;-79
2022/06/04 08:37:36;;;;;;;;;;;;;;;;;;4995990;28;19964;-80
2022/06/04 08:40:01;;;;;;;;;;;;;;;;;;4987340;28;19918;-80
2022/06/04 08:42:29;;;;;;;;;;;;;;;;;;4985170;28;19925;-80
2022/06/04 08:44:58;;;;;;;;;;;;;;;;;;4961626;28;19917;-79
2022/06/04 08:47:23;;;;;;;;;;;;;;;;;;4984508;28;20009;-79
2022/06/04 08:49:50;;;;;;;;;;;;;;;;;;4993547;28;19918;-81
2022/06/04 08:52:15;;;;;;;;;;;;;;;;;;4988887;28;19961;-80
2022/06/04 08:57:32;;;;;;;;;;;;;;;;;;5007670;28;20005;-80
2022/06/04 09:00:03;;;;;;;;;;;;;;;;;;4991903;28;19988;-80
2022/06/04 09:02:35;;;;;;;;;;;;;;;;;;4979481;28;19918;-79
2022/06/04 09:05:01;;;;;;;;;;;;;;;;;;4975886;28;19961;-81
2022/06/04 09:07:29;;;;;;;;;;;;;;;;;;4994060;28;20011;-78
2022/06/04 09:09:59;;;;;;;;;;;;;;;;;;4994446;28;20372;-79
2022/06/04 09:12:38;;;;;;;;;;;;;;;;;;4986104;28;19914;-81
2022/06/04 09:15:12;;;;;;;;;;;;;;;;;;4992757;28;19972;-81
2022/06/04 09:17:44;;;;;;;;;;;;;;;;;;5002539;28;20416;-80
2022/06/04 09:20:29;;;;;;;;;;;;;;;;;;4996319;28;20393;-81
2022/06/04 09:22:57;;;;;;;;;;;;;;;;;;4985432;28;19967;-80
2022/06/04 09:25:24;;;;;;;;;;;;;;;;;;4979348;28;19928;-79
2022/06/04 09:28:05;;;;;;;;;;;;;;;;;;4974623;28;20333;-83
2022/06/04 09:30:34;;;;;;;;;;;;;;;;;;4963967;28;20004;-82
2022/06/04 09:33:18;;;;;;;;;;;;;;;;;;4976281;28;20722;-80
2022/06/04 09:35:43;;;;;;;;;;;;;;;;;;4979884;28;20064;-79
2022/06/04 09:38:19;;;;;;;;;;;;;;;;;;4978339;28;20367;-78
2022/06/04 09:40:45;;;;;;;;;;;;;;;;;;4980672;28;20433;-82
2022/06/04 09:43:17;;;;;;;;;;;;;;;;;;4994002;28;19913;-81
2022/06/04 09:45:49;;;;;;;;;;;;;;;;;;5002132;28;19913;-82
2022/06/04 09:48:20;;;;;;;;;;;;;;;;;;5003027;28;19921;-82
2022/06/04 09:50:50;;;;;;;;;;;;;;;;;;4977587;28;19917;-82
2022/06/04 09:53:19;;;;;;;;;;;;;;;;;;4993742;28;20408;-83
2022/06/04 09:55:58;;;;;;;;;;;;;;;;;;4975505;28;19914;-83
2022/06/04 09:58:23;;;;;;;;;;;;;;;;;;4980944;28;20365;-82
2022/06/04 10:00:54;;;;;;;;;;;;;;;;;;5002468;28;19924;-81
2022/06/04 10:03:19;;;;;;;;;;;;;;;;;;4985475;28;19921;-82
2022/06/04 10:06:01;;;;;;;;;;;;;;;;;;4963958;28;19918;-81
2022/06/04 10:08:27;;;;;;;;;;;;;;;;;;5002486;28;19921;-81
2022/06/04 10:10:57;;;;;;;;;;;;;;;;;;5001922;28;20375;-81
2022/06/04 10:13:42;;;;;;;;;;;;;;;;;;4976093;28;20389;-82
2022/06/04 10:16:16;;;;;;;;;;;;;;;;;;4980331;28;19922;-80
2022/06/04 10:18:52;;;;;;;;;;;;;;;;;;4993686;28;19918;-81
2022/06/04 10:21:18;;;;;;;;;;;;;;;;;;4979198;28;19917;-81
2022/06/04 10:23:46;;;;;;;;;;;;;;;;;;5002662;28;20373;-80
2022/06/04 10:26:30;;;;;;;;;;;;;;;;;;4968141;28;19914;-81
2022/06/04 10:29:17;;;;;;;;;;;;;;;;;;5009511;28;20312;-81
2022/06/04 10:32:01;;;;;;;;;;;;;;;;;;4997718;28;20431;-80
2022/06/04 10:34:32;;;;;;;;;;;;;;;;;;5000533;28;19964;-81
2022/06/04 10:37:00;;;;;;;;;;;;;;;;;;4987460;28;19924;-81
2022/06/04 10:39:32;;;;;;;;;;;;;;;;;;4996724;28;20408;-82
2022/06/04 10:41:57;;;;;;;;;;;;;;;;;;4991700;28;19918;-81
2022/06/04 10:44:44;;;;;;;;;;;;;;;;;;4997179;28;20288;-81
2022/06/04 10:47:12;;;;;;;;;;;;;;;;;;4989971;28;19968;-81
2022/06/04 10:49:48;;;;;;;;;;;;;;;;;;5003082;28;19940;-81
2022/06/04 10:52:24;;;;;;;;;;;;;;;;;;4978826;28;20466;-82
2022/06/04 10:54:56;;;;;;;;;;;;;;;;;;4986278;28;20313;-80
2022/06/04 10:57:24;;;;;;;;;;;;;;;;;;4984970;28;19917;-83
2022/06/04 10:59:59;;;;;;;;;;;;;;;;;;4992664;28;19917;-82
2022/06/04 11:02:39;;;;;;;;;;;;;;;;;;4991495;28;19968;-82
2022/06/04 11:05:12;;;;;;;;;;;;;;;;;;4993477;28;19925;-81
2022/06/04 11:07:52;;;;;;;;;;;;;;;;;;4992451;28;20013;-80
2022/06/04 11:10:18;;;;;;;;;;;;;;;;;;4996877;28;20016;-81
2022/06/04 11:12:49;;;;;;;;;;;;;;;;;;4993095;28;20416;-81
2022/06/04 11:15:17;;;;;;;;;;;;;;;;;;4994144;28;20388;-81
2022/06/04 11:17:44;;;;;;;;;;;;;;;;;;4979550;28;19925;-82
2022/06/04 11:20:13;;;;;;;;;;;;;;;;;;4994131;28;19944;-82
2022/06/04 11:22:39;;;;;;;;;;;;;;;;;;4994988;28;19977;-81
2022/06/04 11:25:14;;;;;;;;;;;;;;;;;;4981667;28;19921;-83
2022/06/04 11:27:41;;;;;;;;;;;;;;;;;;4978871;28;19925;-81
2022/06/04 11:30:12;;;;;;;;;;;;;;;;;;4992886;28;19913;-80
2022/06/04 11:33:01;;;;;;;;;;;;;;;;;;4970656;28;19917;-80
2022/06/04 11:35:29;;;;;;;;;;;;;;;;;;5007055;28;24671;-80
2022/06/04 11:38:01;;;;;;;;;;;;;;;;;;4978900;28;19918;-80
2022/06/04 11:40:26;;;;;;;;;;;;;;;;;;4988232;28;20389;-80
2022/06/04 11:42:56;;;;;;;;;;;;;;;;;;4999599;28;20040;-81
2022/06/04 11:45:25;;;;;;;;;;;;;;;;;;4993368;28;20819;-79
2022/06/04 11:47:55;;;;;;;;;;;;;;;;;;5009640;28;19922;-81
2022/06/04 11:50:32;;;;;;;;;;;;;;;;;;4981306;28;19993;-82
2022/06/04 11:53:16;;;;;;;;;;;;;;;;;;5005619;28;19914;-82
2022/06/04 11:55:56;;;;;;;;;;;;;;;;;;4996278;28;19913;-82
2022/06/04 11:58:33;;;;;;;;;;;;;;;;;;4985926;28;20471;-82
2022/06/04 12:00:59;;;;;;;;;;;;;;;;;;4995656;28;19917;-83
2022/06/04 12:03:27;;;;;;;;;;;;;;;;;;4981798;28;20416;-83
2022/06/04 12:05:58;;;;;;;;;;;;;;;;;;4997302;28;19929;-82
2022/06/04 12:08:33;;;;;;;;;;;;;;;;;;5009909;28;19929;-82
2022/06/04 12:11:04;;;;;;;;;;;;;;;;;;5003531;28;19917;-83
2022/06/04 12:13:52;;;;;;;;;;;;;;;;;;4993930;28;19921;-82
2022/06/04 12:16:37;;;;;;;;;;;;;;;;;;5003017;28;19918;-80
2022/06/04 12:24:15;;;;;;;;;;;;;;;;;;4967730;28;20539;-80
2022/06/04 12:24:57;;;;;;;;;;;;;;;;;;4995467;28;19997;-81
2022/06/04 12:27:24;;;;;;;;;;;;;;;;;;5003134;28;20523;-85
2022/06/04 12:29:50;;;;;;;;;;;;;;;;;;4966392;28;19921;-81
2022/06/04 12:32:24;;;;;;;;;;;;;;;;;;4977269;28;20321;-83
2022/06/04 12:34:51;;;;;;;;;;;;;;;;;;5007662;28;19988;-82
2022/06/04 12:37:29;;;;;;;;;;;;;;;;;;4992691;28;20016;-84
2022/06/04 12:39:55;;;;;;;;;;;;;;;;;;4986831;28;20322;-82
2022/06/04 12:42:20;;;;;;;;;;;;;;;;;;4997218;28;19921;-80
2022/06/04 12:44:58;;;;;;;;;;;;;;;;;;5007123;28;19985;-82
2022/06/04 12:47:25;;;;;;;;;;;;;;;;;;4999373;28;19918;-81
2022/06/04 12:49:53;;;;;;;;;;;;;;;;;;4984196;28;19957;-82
2022/06/04 12:52:26;;;;;;;;;;;;;;;;;;4966161;28;20368;-80
2022/06/04 12:55:11;;;;;;;;;;;;;;;;;;4965314;28;20068;-80
2022/06/04 12:57:42;;;;;;;;;;;;;;;;;;5012283;28;19917;-80
2022/06/04 13:00:13;;;;;;;;;;;;;;;;;;4998410;28;20065;-80
2022/06/04 13:02:42;;;;;;;;;;;;;;;;;;4997952;28;19918;-80
2022/06/04 13:05:08;;;;;;;;;;;;;;;;;;4989642;28;19914;-78
2022/06/04 13:07:34;;;;;;;;;;;;;;;;;;5003435;28;19941;-79
2022/06/04 13:10:03;;;;;;;;;;;;;;;;;;4998066;28;19964;-79
2022/06/04 13:12:41;;;;;;;;;;;;;;;;;;4986671;28;20032;-78
2022/06/04 13:15:17;;;;;;;;;;;;;;;;;;4989266;28;19918;-77
2022/06/04 13:17:49;;;;;;;;;;;;;;;;;;4975590;28;20388;-84
2022/06/04 13:20:33;;;;;;;;;;;;;;;;;;4986423;28;20444;-82
2022/06/04 13:23:17;;;;;;;;;;;;;;;;;;4994356;28;19988;-83
2022/06/04 13:25:42;;;;;;;;;;;;;;;;;;4992197;28;19924;-82
2022/06/04 13:28:23;;;;;;;;;;;;;;;;;;4993469;28;19929;-80
2022/06/04 13:30:49;;;;;;;;;;;;;;;;;;4994365;28;19918;-80
2022/06/04 13:33:15;;;;;;;;;;;;;;;;;;4994154;28;19932;-81
2022/06/04 13:35:44;;;;;;;;;;;;;;;;;;4976420;28;19917;-80
2022/06/04 13:38:11;;;;;;;;;;;;;;;;;;5002507;28;20376;-80
2022/06/04 13:40:36;;;;;;;;;;;;;;;;;;4979470;28;19918;-78
2022/06/04 13:43:01;;;;;;;;;;;;;;;;;;4979928;28;19928;-77
2022/06/04 13:45:31;;;;;;;;;;;;;;;;;;4977611;28;20015;-81
2022/06/04 13:47:58;;;;;;;;;;;;;;;;;;4975854;28;19926;-78
2022/06/04 13:50:24;;;;;;;;;;;;;;;;;;4974158;28;19987;-83
2022/06/04 13:52:53;;;;;;;;;;;;;;;;;;4991512;28;20380;-80
2022/06/04 13:55:25;;;;;;;;;;;;;;;;;;4978121;28;19925;-81
2022/06/04 13:57:50;;;;;;;;;;;;;;;;;;4982597;28;19918;-79
2022/06/04 14:00:18;;;;;;;;;;;;;;;;;;4973956;28;19933;-79
2022/06/04 14:02:43;;;;;;;;;;;;;;;;;;4993324;28;19921;-78
2022/06/04 14:08:18;;;;;;;;;;;;;;;;;;4981447;28;20187;-85
2022/06/04 14:10:57;;;;;;;;;;;;;;;;;;4998847;28;20258;-85
2022/06/04 14:13:37;;;;;;;;;;;;;;;;;;4972019;28;19920;-87
2022/06/04 14:16:24;;;;;;;;;;;;;;;;;;4973968;28;20022;-85
2022/06/04 14:18:54;;;;;;;;;;;;;;;;;;4988691;28;20048;-85
2022/06/04 14:21:19;;;;;;;;;;;;;;;;;;4993715;28;19913;-81
2022/06/04 14:23:54;;;;;;;;;;;;;;;;;;5001981;28;19917;-85
2022/06/04 14:26:25;;;;;;;;;;;;;;;;;;5001979;28;20365;-84
2022/06/04 14:28:58;;;;;;;;;;;;;;;;;;4992250;28;19957;-86
2022/06/04 14:31:40;;;;;;;;;;;;;;;;;;4977450;28;19917;-87
2022/06/04 14:34:05;;;;;;;;;;;;;;;;;;4992396;28;19925;-86
2022/06/04 14:36:32;;;;;;;;;;;;;;;;;;4993240;28;19918;-85
2022/06/04 14:38:57;;;;;;;;;;;;;;;;;;4979713;28;19920;-86
2022/06/04 14:41:25;;;;;;;;;;;;;;;;;;4978107;28;19921;-85
2022/06/04 14:44:09;;;;;;;;;;;;;;;;;;4988268;28;19947;-85
2022/06/04 14:46:40;;;;;;;;;;;;;;;;;;4995452;28;20373;-84
2022/06/04 14:49:24;;;;;;;;;;;;;;;;;;4982737;28;20008;-82
2022/06/04 14:51:55;;;;;;;;;;;;;;;;;;4995222;28;19925;-85
2022/06/04 14:54:20;;;;;;;;;;;;;;;;;;4993730;28;20452;-86
2022/06/04 14:56:48;;;;;;;;;;;;;;;;;;4979784;28;19945;-85
2022/06/04 14:59:20;;;;;;;;;;;;;;;;;;4996989;28;20350;-86
2022/06/04 15:01:48;;;;;;;;;;;;;;;;;;4992095;28;19917;-85
2022/06/04 15:04:15;;;;;;;;;;;;;;;;;;4991893;28;20357;-86
2022/06/04 15:06:43;;;;;;;;;;;;;;;;;;5001887;28;19921;-86
2022/06/04 15:09:08;;;;;;;;;;;;;;;;;;4995316;28;20976;-86
2022/06/04 15:11:56;;;;;;;;;;;;;;;;;;4992035;28;19913;-83
2022/06/04 15:14:24;;;;;;;;;;;;;;;;;;4999701;28;20270;-87
2022/06/04 15:17:05;;;;;;;;;;;;;;;;;;4986694;28;19924;-85
2022/06/04 15:19:44;;;;;;;;;;;;;;;;;;4977123;28;20415;-82
2022/06/04 15:22:19;;;;;;;;;;;;;;;;;;4993176;28;20292;-85
2022/06/04 15:25:00;;;;;;;;;;;;;;;;;;5003285;28;19914;-84
2022/06/04 15:27:58;;;;;;;;;;;;;;;;;;4991821;28;19971;-84
2022/06/04 15:36:16;;;;;;;;;;;;;;;;;;4994416;28;20288;-86
2022/06/04 15:38:55;;;;;;;;;;;;;;;;;;4980624;28;20020;-86
2022/06/04 15:41:20;;;;;;;;;;;;;;;;;;4983731;28;19949;-88
2022/06/04 15:43:45;;;;;;;;;;;;;;;;;;4977062;28;20404;-85
2022/06/04 15:46:22;;;;;;;;;;;;;;;;;;4974623;28;19918;-86
2022/06/04 15:48:48;;;;;;;;;;;;;;;;;;4979810;28;20109;-85
2022/06/04 15:56:49;;;;;;;;;;;;;;;;;;4985543;28;19921;-85
2022/06/04 15:59:14;;;;;;;;;;;;;;;;;;4974681;28;19918;-86
2022/06/04 16:01:42;;;;;;;;;;;;;;;;;;4986178;28;19932;-85
2022/06/04 16:04:07;;;;;;;;;;;;;;;;;;4981929;28;19925;-86
2022/06/04 16:06:32;;;;;;;;;;;;;;;;;;5000700;28;20488;-86
2022/06/04 16:09:02;;;;;;;;;;;;;;;;;;4974634;28;19918;-84
2022/06/04 16:11:42;;;;;;;;;;;;;;;;;;4970420;28;20004;-86
2022/06/04 16:14:10;;;;;;;;;;;;;;;;;;4979211;28;19924;-87
2022/06/04 16:16:53;;;;;;;;;;;;;;;;;;4971974;28;19924;-86
2022/06/04 16:19:19;;;;;;;;;;;;;;;;;;5005424;28;19941;-85
2022/06/04 16:21:48;;;;;;;;;;;;;;;;;;4992480;28;19917;-85
2022/06/04 16:24:20;;;;;;;;;;;;;;;;;;4982891;28;20012;-85
2022/06/04 16:26:50;;;;;;;;;;;;;;;;;;4990764;28;19917;-86
2022/06/04 16:29:18;;;;;;;;;;;;;;;;;;4987696;28;19936;-87
2022/06/04 16:31:46;;;;;;;;;;;;;;;;;;4990498;28;20558;-86
2022/06/04 16:34:11;;;;;;;;;;;;;;;;;;4983808;28;19968;-87
2022/06/04 16:36:42;;;;;;;;;;;;;;;;;;4980661;28;19918;-86
2022/06/04 16:39:09;;;;;;;;;;;;;;;;;;4998139;28;20008;-85
2022/06/04 16:44:57;;;;;;;;;;;;;;;;;;4996859;28;20397;-86
2022/06/04 16:47:41;;;;;;;;;;;;;;;;;;4984892;28;19918;-85
2022/06/04 16:50:06;;;;;;;;;;;;;;;;;;4952184;28;20905;-86
2022/06/04 16:52:36;;;;;;;;;;;;;;;;;;4986730;28;19967;-83
2022/06/04 16:55:12;;;;;;;;;;;;;;;;;;4995900;28;19921;-85
2022/06/04 16:57:39;;;;;;;;;;;;;;;;;;4986986;28;20318;-86
2022/06/04 17:00:06;;;;;;;;;;;;;;;;;;5009120;28;20361;-86
2022/06/04 17:02:45;;;;;;;;;;;;;;;;;;4986963;28;19921;-85
2022/06/04 17:05:13;;;;;;;;;;;;;;;;;;4980123;28;19920;-86
2022/06/04 17:07:39;;;;;;;;;;;;;;;;;;4996338;28;19921;-86
2022/06/04 17:10:07;;;;;;;;;;;;;;;;;;5010882;28;19913;-87
2022/06/04 17:12:32;;;;;;;;;;;;;;;;;;4996310;28;19922;-89
2022/06/04 17:15:09;;;;;;;;;;;;;;;;;;4996451;28;19913;-85
2022/06/04 17:17:48;;;;;;;;;;;;;;;;;;4996363;28;20028;-85
2022/06/04 17:20:16;;;;;;;;;;;;;;;;;;5002744;28;20280;-78
2022/06/04 17:22:41;;;;;;;;;;;;;;;;;;4995609;28;19918;-78
2022/06/04 17:25:14;;;;;;;;;;;;;;;;;;4994261;28;19924;-79
2022/06/04 17:27:42;;;;;;;;;;;;;;;;;;4990976;28;19929;-77